Aklavik, Northwest Territories

10:26 PM MDT on September 23, 2014 (GMT -0600)
Zubko | Change Station
CLOSE
Current Station
Airport
Location: Inuvik,
Elevation: 223 ft
Nearby Weather Stations

Elev 223 ft 68.31 °N, 133.50 °W | Updated 26 minutes ago

Overcast
Overcast
39 °F
Feels Like 39 °F
N
0
Wind Variable Wind from North

Tomorrow is forecast to be nearly the same temperature as today.

Today
High -- | Low -- °F
--% Chance of Precip.
Yesterday
High -- | Low -- °F
Precip. -- in
8:45 AM 8:57 PM
Waning Crescent, 0% visible
Pressure 29.70 in
Visibility 15.0 miles
Clouds Overcast 4900 ft
Dew Point 34 °F
Humidity 81%
Rainfall 0.00 in
Snow Depth Not available.
UV 0 out of 12
Pollen Not available.
Air Quality Not available.
Flu Activity Not available.
METAR CYEV 240400Z 00000KT 15SM OVC049 04/01 A2968 RMK SC8 SLP056

More Conditions Fewer Conditions

Pressure 29.70 in
Visibility 15.0 miles
Clouds Overcast 4900 ft
Dew Point 34 °F
Humidity 81%
Rainfall 0.00 in
Snow Depth Not available.
UV 0 out of 12
Pollen Not available.
Air Quality Not available.
Flu Activity Not available.
METAR CYEV 240400Z 00000KT 15SM OVC049 04/01 A2968 RMK SC8 SLP056

More Conditions Fewer Conditions

10-Day Weather Forecast

Almanac

Astronomy

Sep. 23, 2014 Rise Set
Actual Time 8:45 AM MDT 8:57 PM MDT
Civil Twilight 7:48 AM MDT 9:53 PM MDT
Nautical Twilight 6:38 AM MDT 11:03 PM MDT
Astronomical Twilight 5:09 AM MDT 12:29 AM MDT
Moon 8:16 AM MDT (9/23) 8:28 PM MDT (9/23)
Length of Visible Light 14h 04m
Length of Day
12h 11m
Tomorrow will be 7m 48s shorter.
Waning Crescent, 0% of the Moon is Illuminated
Sep 24
Waning Crescent
Sep 24
New
Oct 1
First Quarter
Oct 8
Full
Oct 15
Last Quarter

Today's Extremes

Country Highs Country Lows

Community

WunderPhotos

Upload Photos

1,755,890 photos uploaded!

WunderBlogs® & News

Nearby

Snow Depth

Not available.

Earthquake Activity

City Distance Mag. Time & Date
No recent earthquake activity has been reported nearby.
Minimum magnitude displayed is 2.5.

Coastal Water Temperatures

Place Temperature
No Stations Reporting

Nearby Weather Stations